Time;durP1;ratioP1;P1;durP2;ratioP2;P2;SDS_P1;SDS_P2;PMS_P1;PMS_P2;Temp;Humidity;BMP_temperature;BMP_pressure;BME280_temperature;BME280_humidity;BME280_pressure;Samples;Min_cycle;Max_cycle;Signal;HPM_P1;HPM_P2
2022/03/07 00:02:25;;;;;;;15.30;6.55;;;;;;;-0.43;60.71;99901.38;5116460;28;20397;-74
2022/03/07 00:04:54;;;;;;;16.98;7.25;;;;;;;-0.38;60.69;99897.41;5116507;27;20040;-72
2022/03/07 00:07:23;;;;;;;12.25;6.18;;;;;;;-0.29;60.18;99897.84;5114698;28;20036;-73
2022/03/07 00:10:05;;;;;;;19.45;7.20;;;;;;;-0.44;60.58;99898.00;5115679;28;20069;-74
2022/03/07 00:12:34;;;;;;;15.15;6.82;;;;;;;-0.41;60.26;99898.16;5115170;28;20050;-73
2022/03/07 00:15:03;;;;;;;12.23;6.50;;;;;;;-0.48;60.49;99898.63;5114757;28;20047;-74
2022/03/07 00:17:31;;;;;;;18.33;7.03;;;;;;;-0.50;60.64;99902.72;5116145;28;20312;-74
2022/03/07 00:20:04;;;;;;;16.75;6.88;;;;;;;-0.46;60.18;99899.59;5116080;28;20075;-74
2022/03/07 00:22:34;;;;;;;17.17;6.50;;;;;;;-0.40;60.37;99909.88;5116196;28;20044;-73
2022/03/07 00:25:07;;;;;;;18.42;8.10;;;;;;;-0.50;60.64;99896.84;5115511;28;20054;-73
2022/03/07 00:27:37;;;;;;;15.40;6.75;;;;;;;-0.41;60.43;99903.19;5116134;28;20092;-73
2022/03/07 00:30:08;;;;;;;18.05;6.88;;;;;;;-0.28;59.96;99902.06;5115142;28;20044;-74
2022/03/07 00:32:37;;;;;;;17.00;6.95;;;;;;;-0.36;59.99;99906.72;5116421;28;20389;-74
2022/03/07 00:35:07;;;;;;;15.63;6.93;;;;;;;-0.42;60.18;99906.47;5115934;28;20071;-74
2022/03/07 00:37:35;;;;;;;17.70;6.82;;;;;;;-0.44;60.24;99898.00;5114627;28;20042;-73
2022/03/07 00:40:10;;;;;;;16.30;6.10;;;;;;;-0.37;60.01;99900.00;5114191;28;20559;-73
2022/03/07 00:42:40;;;;;;;11.93;5.90;;;;;;;-0.47;60.09;99900.38;5115415;28;20047;-73
2022/03/07 00:45:10;;;;;;;;;;;;;;;-0.48;60.40;99901.13;5116435;28;20051;-73
2022/03/07 00:47:39;;;;;;;16.88;6.05;;;;;;;-0.52;60.31;99898.44;5114576;28;19920;-73
2022/03/07 00:50:08;;;;;;;20.57;7.43;;;;;;;-0.53;60.57;99902.59;5114352;28;20062;-73
2022/03/07 00:52:37;;;;;;;;;;;;;;;-0.59;60.29;99896.44;5114931;28;20546;-73
2022/03/07 00:55:08;;;;;;;16.58;5.88;;;;;;;-0.61;60.34;99888.84;5114023;28;19973;-73
2022/03/07 00:57:39;;;;;;;16.13;5.85;;;;;;;-0.66;60.66;99895.28;5114562;28;20134;-74
2022/03/07 01:00:09;;;;;;;14.65;6.60;;;;;;;-0.63;60.27;99877.91;5115312;28;20047;-73
2022/03/07 01:02:39;;;;;;;14.85;6.25;;;;;;;-0.63;60.50;99894.56;5114431;28;20047;-74
2022/03/07 01:05:09;;;;;;;18.17;6.50;;;;;;;-0.49;60.25;99891.06;5115492;28;20051;-74
2022/03/07 01:07:39;;;;;;;17.08;7.28;;;;;;;-0.41;59.91;99899.81;5115181;28;20044;-74
2022/03/07 01:10:09;;;;;;;15.98;6.03;;;;;;;-0.50;59.92;99897.72;5116757;28;20044;-74
2022/03/07 01:12:40;;;;;;;12.65;6.22;;;;;;;-0.48;59.83;99895.28;5114988;28;20039;-73
2022/03/07 01:15:09;;;;;;;15.15;6.32;;;;;;;-0.52;59.73;99888.41;5113944;28;20047;-73
2022/03/07 01:17:39;;;;;;;16.10;6.60;;;;;;;-0.62;60.14;99884.63;5114529;28;20511;-73
2022/03/07 01:20:10;;;;;;;15.75;6.30;;;;;;;-0.53;59.92;99892.59;5114579;28;20528;-73
2022/03/07 01:22:41;;;;;;;14.68;5.97;;;;;;;-0.59;60.22;99887.28;5114378;28;20126;-74
2022/03/07 01:25:11;;;;;;;14.23;6.20;;;;;;;-0.61;59.91;99883.84;5114961;28;20039;-73
2022/03/07 01:27:41;;;;;;;13.07;5.95;;;;;;;-0.60;59.88;99880.53;5115680;28;20067;-73
2022/03/07 01:30:10;;;;;;;15.52;6.30;;;;;;;-0.71;59.99;99866.66;5113355;28;20045;-73
2022/03/07 01:32:39;;;;;;;12.23;6.40;;;;;;;-0.68;59.78;99876.81;5115175;28;20059;-73
2022/03/07 01:35:09;;;;;;;13.85;5.22;;;;;;;-0.61;60.06;99872.94;5114778;28;20446;-72
2022/03/07 01:37:38;;;;;;;14.18;6.28;;;;;;;-0.62;59.62;99872.09;5114402;28;20050;-73
2022/03/07 01:40:07;;;;;;;9.73;4.47;;;;;;;-0.69;59.60;99875.09;5114870;28;20042;-73
2022/03/07 01:42:36;;;;;;;;;;;;;;;-0.74;59.71;99876.53;5112628;28;20063;-73
2022/03/07 01:45:11;;;;;;;13.63;6.00;;;;;;;-0.71;59.90;99869.16;5113963;28;19926;-74
2022/03/07 01:47:40;;;;;;;16.23;6.90;;;;;;;-0.75;60.11;99872.31;5113383;28;20044;-73
2022/03/07 01:50:12;;;;;;;14.20;6.40;;;;;;;-0.74;59.71;99871.50;5114814;28;20515;-73
2022/03/07 01:52:44;;;;;;;15.25;5.95;;;;;;;-0.66;59.60;99872.75;5114712;28;20040;-73
2022/03/07 01:55:15;;;;;;;14.90;5.95;;;;;;;-0.58;59.49;99863.94;5113223;28;20047;-73
2022/03/07 01:58:04;;;;;;;16.80;7.05;;;;;;;-0.58;59.23;99863.06;5113118;28;20101;-73
2022/03/07 02:00:34;;;;;;;16.23;6.38;;;;;;;-0.60;58.92;99855.47;5114070;28;20101;-73
2022/03/07 02:03:04;;;;;;;15.60;6.10;;;;;;;-0.65;58.93;99866.97;5114220;28;20047;-73
2022/03/07 02:05:42;;;;;;;15.10;5.93;;;;;;;-0.69;59.04;99867.59;5113237;28;20550;-73
2022/03/07 02:08:17;;;;;;;17.23;7.18;;;;;;;-0.65;59.09;99861.94;5113011;28;20035;-74
2022/03/07 02:10:54;;;;;;;22.77;7.47;;;;;;;-0.56;58.90;99856.47;5113410;28;20062;-74
2022/03/07 02:13:23;;;;;;;17.30;6.28;;;;;;;-0.54;58.61;99860.78;5113571;28;20047;-73
2022/03/07 02:16:01;;;;;;;16.80;6.90;;;;;;;-0.56;58.59;99857.34;5113759;28;20112;-74
2022/03/07 02:18:33;;;;;;;13.60;6.45;;;;;;;-0.47;58.35;99852.75;5113012;28;20043;-73
2022/03/07 02:21:10;;;;;;;12.63;6.10;;;;;;;-0.47;57.81;99852.75;5113460;28;20160;-73
2022/03/07 02:23:51;;;;;;;14.55;6.72;;;;;;;-0.45;57.73;99856.19;5113123;28;20083;-74
2022/03/07 02:26:20;;;;;;;14.93;6.53;;;;;;;-0.47;57.51;99855.25;5113103;28;20052;-73
2022/03/07 02:28:53;;;;;;;13.43;6.50;;;;;;;-0.54;57.34;99858.28;5113115;28;20059;-74
2022/03/07 02:31:27;;;;;;;15.75;6.55;;;;;;;-0.46;57.26;99854.47;5113574;28;20054;-74
2022/03/07 02:33:56;;;;;;;15.43;7.00;;;;;;;-0.36;57.04;99856.59;5114468;28;20123;-74
2022/03/07 02:36:25;;;;;;;16.73;6.53;;;;;;;-0.48;57.09;99856.03;5112484;28;20040;-73
2022/03/07 02:38:56;;;;;;;16.27;6.43;;;;;;;-0.52;57.33;99851.69;5112784;28;20036;-73
2022/03/07 02:41:26;;;;;;;16.65;6.47;;;;;;;-0.55;57.22;99864.06;5112530;28;20143;-74
2022/03/07 02:43:55;;;;;;;16.15;6.75;;;;;;;-0.58;57.53;99853.91;5112608;28;20044;-73
2022/03/07 02:46:24;;;;;;;17.65;6.63;;;;;;;-0.71;57.18;99857.50;5113486;28;20050;-74
2022/03/07 02:48:53;;;;;;;13.43;6.28;;;;;;;-0.66;57.74;99860.22;5112500;28;20100;-73
2022/03/07 02:51:22;;;;;;;21.33;7.63;;;;;;;-0.60;57.39;99860.47;5112520;28;20036;-73
2022/03/07 02:53:51;;;;;;;16.00;6.70;;;;;;;-0.51;56.98;99855.91;5114854;28;20511;-73
2022/03/07 02:56:21;;;;;;;14.17;4.70;;;;;;;-0.42;56.89;99868.00;5117976;28;20078;-74
2022/03/07 02:58:50;;;;;;;15.88;6.78;;;;;;;-0.59;56.85;99837.16;5117714;28;20260;-74
2022/03/07 03:01:19;;;;;;;15.40;7.50;;;;;;;-0.53;57.02;99865.00;5118027;28;20108;-74
2022/03/07 03:03:49;;;;;;;14.38;6.07;;;;;;;-0.60;57.19;99873.00;5118607;28;20393;-74
2022/03/07 03:06:18;;;;;;;14.00;6.33;;;;;;;-0.67;57.37;99868.50;5117957;28;20044;-74
2022/03/07 03:08:50;;;;;;;15.52;6.68;;;;;;;-0.66;57.12;99880.25;5117824;28;20484;-74
2022/03/07 03:11:19;;;;;;;15.20;6.93;;;;;;;-0.59;57.48;99877.25;5117701;28;20051;-74
2022/03/07 03:13:49;;;;;;;13.40;6.38;;;;;;;-0.58;57.29;99875.59;5117653;27;20483;-74
2022/03/07 03:16:18;;;;;;;21.50;6.88;;;;;;;-0.69;57.22;99872.59;5116870;28;20075;-73
2022/03/07 03:18:48;;;;;;;;;;;;;;;-0.61;57.52;99886.34;5117642;28;20099;-74
2022/03/07 03:21:17;;;;;;;15.15;5.72;;;;;;;-0.53;56.99;99882.56;5117166;28;19919;-73
2022/03/07 03:23:46;;;;;;;;;;;;;;;-0.45;57.22;99885.38;5118226;28;20050;-74
2022/03/07 03:26:15;;;;;;;19.67;6.47;;;;;;;-0.48;57.11;99887.78;5117685;28;19919;-74
2022/03/07 03:28:44;;;;;;;16.20;6.77;;;;;;;-0.59;57.56;99878.88;5117243;28;20048;-74
2022/03/07 03:31:14;;;;;;;16.70;6.70;;;;;;;-0.46;57.06;99877.03;5116028;28;20280;-73
2022/03/07 03:33:43;;;;;;;16.98;6.90;;;;;;;-0.44;57.21;99875.44;5115543;28;20051;-73
2022/03/07 03:36:12;;;;;;;18.70;7.28;;;;;;;-0.28;57.20;99869.47;5116446;28;20121;-73
2022/03/07 03:38:41;;;;;;;;;;;;;;;-0.30;56.71;99876.94;5115958;28;20051;-73
2022/03/07 03:41:10;;;;;;;15.13;6.30;;;;;;;-0.36;56.73;99871.63;5116716;28;19930;-73
2022/03/07 03:43:39;;;;;;;14.90;6.88;;;;;;;-0.34;57.01;99869.22;5117198;28;20039;-74
2022/03/07 03:46:08;;;;;;;18.20;6.87;;;;;;;-0.20;56.77;99873.19;5116788;28;20051;-74
2022/03/07 03:48:39;;;;;;;17.40;7.30;;;;;;;-0.17;56.50;99879.19;5116719;28;20036;-73
2022/03/07 03:51:08;;;;;;;18.70;8.05;;;;;;;-0.02;56.23;99879.88;5116885;28;20036;-74
2022/03/07 03:53:37;;;;;;;16.20;6.80;;;;;;;0.03;56.15;99876.69;5115670;28;20409;-74
2022/03/07 03:56:06;;;;;;;18.70;7.07;;;;;;;-0.04;56.04;99876.44;5115971;28;20043;-74
2022/03/07 03:58:35;;;;;;;16.73;7.13;;;;;;;0.02;55.97;99875.00;5116742;28;20047;-74
2022/03/07 04:01:05;;;;;;;17.58;7.53;;;;;;;-0.17;56.07;99881.69;5116418;27;20126;-74
2022/03/07 04:03:34;;;;;;;21.17;7.35;;;;;;;-0.17;56.19;99878.34;5116670;28;20101;-74
2022/03/07 04:06:06;;;;;;;20.92;8.43;;;;;;;-0.18;56.17;99872.47;5115752;28;20397;-73
2022/03/07 04:08:50;;;;;;;16.85;8.13;;;;;;;-0.24;56.58;99872.16;5116073;28;20055;-73
2022/03/07 04:11:20;;;;;;;18.75;7.68;;;;;;;-0.24;56.43;99873.84;5116310;28;20074;-73
2022/03/07 04:13:49;;;;;;;17.77;7.40;;;;;;;-0.21;56.63;99877.34;5116881;28;20040;-74
2022/03/07 04:16:18;;;;;;;18.75;7.90;;;;;;;-0.21;56.59;99882.34;5116497;28;20047;-74
2022/03/07 04:18:48;;;;;;;24.02;9.50;;;;;;;-0.28;56.76;99882.88;5115628;28;20050;-73
2022/03/07 04:21:19;;;;;;;21.20;8.30;;;;;;;-0.24;56.79;99887.22;5114549;28;20044;-73
2022/03/07 04:23:48;;;;;;;17.10;6.97;;;;;;;-0.26;56.64;99883.78;5116670;28;20098;-73
2022/03/07 04:26:17;;;;;;;21.75;8.60;;;;;;;-0.25;57.24;99888.03;5116304;28;20043;-74
2022/03/07 04:28:46;;;;;;;18.58;8.23;;;;;;;-0.45;57.28;99865.34;5116369;28;20043;-73
2022/03/07 04:31:15;;;;;;;17.60;8.50;;;;;;;-0.20;57.11;99881.56;5097347;28;20036;-73
2022/03/07 04:33:44;;;;;;;19.33;8.83;;;;;;;-0.26;56.90;99883.78;5116028;28;20075;-73
2022/03/07 04:36:15;;;;;;;13.05;5.15;;;;;;;-0.18;57.23;99884.13;5115131;28;20303;-73
2022/03/07 04:38:46;;;;;;;18.88;7.88;;;;;;;-0.15;57.52;99882.63;5115242;28;20042;-73
2022/03/07 04:41:15;;;;;;;21.42;8.30;;;;;;;-0.15;57.39;99880.13;5115185;28;20524;-73
2022/03/07 04:43:44;;;;;;;19.83;7.97;;;;;;;-0.24;57.71;99881.38;5116587;28;20039;-74
2022/03/07 04:46:13;;;;;;;17.70;7.33;;;;;;;-0.18;57.69;99877.47;5115775;28;20059;-73
2022/03/07 04:48:42;;;;;;;22.85;9.27;;;;;;;-0.13;57.57;99891.09;5115855;28;20070;-74
2022/03/07 04:51:11;;;;;;;21.60;8.82;;;;;;;-0.23;58.09;99888.94;5116252;28;20081;-73
2022/03/07 04:53:40;;;;;;;20.93;9.80;;;;;;;-0.16;57.88;99880.91;5116112;28;20043;-74
2022/03/07 04:56:11;;;;;;;21.98;9.50;;;;;;;-0.20;58.03;99889.09;5116110;28;20031;-74
2022/03/07 04:58:40;;;;;;;24.13;9.18;;;;;;;-0.42;58.49;99870.50;5115843;28;20051;-73
2022/03/07 05:01:10;;;;;;;24.55;9.10;;;;;;;-0.19;58.88;99890.78;5115159;28;20117;-73
2022/03/07 05:03:40;;;;;;;21.77;8.98;;;;;;;-0.14;58.67;99894.38;5114624;28;20097;-73
2022/03/07 05:06:09;;;;;;;;;;;;;;;-0.16;59.20;99900.09;5115596;28;20054;-73
2022/03/07 05:08:39;;;;;;;22.67;9.63;;;;;;;-0.16;59.45;99895.94;5115883;28;19920;-74
2022/03/07 05:11:08;;;;;;;34.65;10.20;;;;;;;-0.14;59.57;99893.50;5115989;28;20044;-74
2022/03/07 05:13:38;;;;;;;22.80;9.17;;;;;;;-0.32;59.44;99860.97;5115069;28;20043;-73
2022/03/07 05:16:07;;;;;;;32.47;10.82;;;;;;;-0.13;59.92;99893.59;5115602;28;20280;-74
2022/03/07 05:18:36;;;;;;;20.33;10.13;;;;;;;-0.09;60.11;99887.91;5115977;28;20097;-74
2022/03/07 05:21:05;;;;;;;27.53;10.83;;;;;;;-0.06;59.82;99883.03;5115547;28;20056;-74
2022/03/07 05:23:34;;;;;;;28.23;10.37;;;;;;;-0.22;60.05;99898.19;5114638;28;20063;-73
2022/03/07 05:26:03;;;;;;;21.88;10.85;;;;;;;-0.24;60.00;99902.25;5114715;28;20272;-73
2022/03/07 05:28:32;;;;;;;18.52;7.38;;;;;;;-0.19;60.44;99900.81;5114525;28;20528;-73
2022/03/07 05:31:03;;;;;;;25.13;10.80;;;;;;;-0.19;60.36;99904.97;5116402;28;20042;-73
2022/03/07 05:33:32;;;;;;;25.73;11.65;;;;;;;-0.31;60.18;99905.28;5115280;28;20279;-73
2022/03/07 05:36:00;;;;;;;26.33;10.80;;;;;;;-0.29;60.48;99918.75;5114251;28;20048;-73
2022/03/07 05:38:30;;;;;;;24.45;10.07;;;;;;;-0.32;60.69;99911.09;5114176;28;20071;-73
2022/03/07 05:41:00;;;;;;;26.25;10.63;;;;;;;-0.31;60.58;99915.31;5114211;28;20043;-73
2022/03/07 05:43:29;;;;;;;21.53;9.40;;;;;;;-0.29;60.17;99916.22;5114122;28;20063;-73
2022/03/07 05:45:58;;;;;;;28.27;10.07;;;;;;;-0.27;60.11;99912.19;5114978;28;20761;-73
2022/03/07 05:48:29;;;;;;;24.27;9.23;;;;;;;-0.16;59.83;99916.03;5113227;28;20043;-73
2022/03/07 05:50:58;;;;;;;23.38;10.50;;;;;;;-0.20;59.64;99918.31;5113109;28;20150;-73
2022/03/07 05:53:27;;;;;;;26.08;11.10;;;;;;;-0.29;60.14;99920.41;5114192;28;20097;-73
2022/03/07 05:55:56;;;;;;;28.40;10.83;;;;;;;-0.31;60.15;99909.47;5113923;28;20043;-73
2022/03/07 05:58:25;;;;;;;26.30;10.57;;;;;;;-0.23;59.88;99916.53;5113952;28;20043;-73
2022/03/07 06:00:54;;;;;;;26.95;10.77;;;;;;;-0.20;59.79;99919.19;5113889;28;20093;-73
2022/03/07 06:03:24;;;;;;;22.48;10.85;;;;;;;-0.19;59.62;99915.88;5114224;28;20063;-72
2022/03/07 06:05:54;;;;;;;25.35;10.65;;;;;;;-0.11;59.78;99916.22;5062819;28;20048;-73
2022/03/07 06:08:24;;;;;;;29.65;11.32;;;;;;;-0.07;59.50;99918.94;5113092;28;20040;-73
2022/03/07 06:10:53;;;;;;;25.42;11.48;;;;;;;-0.05;59.16;99921.53;5113850;28;20066;-73
2022/03/07 06:13:23;;;;;;;25.48;9.98;;;;;;;-0.03;59.30;99917.44;5114330;28;20493;-73
2022/03/07 06:15:53;;;;;;;29.75;12.68;;;;;;;-0.13;58.80;99905.25;5114274;28;20130;-73
2022/03/07 06:18:22;;;;;;;27.57;10.87;;;;;;;0.09;58.85;99924.63;5113768;28;20050;-73
2022/03/07 06:20:51;;;;;;;28.13;11.20;;;;;;;0.15;58.51;99912.34;5114159;28;20280;-73
2022/03/07 06:23:21;;;;;;;28.20;11.10;;;;;;;0.20;58.24;99915.91;5113283;28;20393;-74
2022/03/07 06:25:50;;;;;;;26.25;11.45;;;;;;;0.23;58.11;99926.09;5113431;28;20051;-73
2022/03/07 06:28:19;;;;;;;24.23;10.80;;;;;;;0.19;57.88;99910.06;5113331;28;20048;-73
2022/03/07 06:30:48;;;;;;;27.52;10.75;;;;;;;0.30;57.59;99918.03;5118332;28;20090;-73
2022/03/07 06:33:18;;;;;;;27.67;12.05;;;;;;;0.41;57.33;99926.88;5118007;28;20088;-74
2022/03/07 06:35:47;;;;;;;25.23;10.82;;;;;;;0.42;57.10;99918.56;5118544;28;20031;-73
2022/03/07 06:38:16;;;;;;;23.63;9.98;;;;;;;0.43;57.22;99927.84;5117173;28;20059;-73
2022/03/07 06:40:46;;;;;;;;;;;;;;;0.49;56.83;99936.47;5118715;28;20481;-73
2022/03/07 06:43:15;;;;;;;29.38;11.77;;;;;;;0.56;56.53;99937.59;5118165;28;19972;-74
2022/03/07 06:45:45;;;;;;;26.33;10.60;;;;;;;0.55;56.61;99945.94;5117347;28;20048;-73
2022/03/07 06:48:14;;;;;;;26.50;10.60;;;;;;;0.56;56.54;99937.59;5117797;28;20052;-73
2022/03/07 06:50:43;;;;;;;29.90;11.03;;;;;;;0.55;56.61;99953.47;5117415;28;20046;-73
2022/03/07 06:53:13;;;;;;;28.13;11.48;;;;;;;0.57;56.36;99956.91;5116409;28;20059;-73
2022/03/07 06:55:42;;;;;;;24.80;11.32;;;;;;;0.52;56.31;99955.84;5116669;28;20046;-72
2022/03/07 06:58:13;;;;;;;25.43;10.93;;;;;;;0.49;56.29;99954.06;5117307;28;20039;-74
2022/03/07 07:00:42;;;;;;;28.35;11.70;;;;;;;0.53;56.20;99955.91;5117095;28;20122;-73
2022/03/07 07:03:11;;;;;;;27.50;11.07;;;;;;;0.54;56.12;99959.28;5117416;28;20108;-73
2022/03/07 07:05:40;;;;;;;23.45;11.60;;;;;;;0.48;56.08;99954.00;5117493;28;20481;-74
2022/03/07 07:08:09;;;;;;;25.35;11.85;;;;;;;0.48;56.21;99966.56;5117991;28;20120;-73
2022/03/07 07:10:38;;;;;;;27.00;11.07;;;;;;;0.47;56.58;99977.38;5116636;28;20501;-73
2022/03/07 07:13:12;;;;;;;24.98;11.52;;;;;;;0.46;56.65;99975.63;5116790;28;20050;-73
2022/03/07 07:15:43;;;;;;;24.13;10.02;;;;;;;0.46;56.85;99966.47;5117640;28;20393;-74
2022/03/07 07:18:12;;;;;;;27.00;12.73;;;;;;;0.47;56.69;99972.34;5116705;28;20490;-73
2022/03/07 07:20:41;;;;;;;25.40;11.82;;;;;;;0.46;56.91;99978.16;5117200;28;20067;-75
2022/03/07 07:23:10;;;;;;;25.33;11.43;;;;;;;0.55;56.78;99981.09;5116700;28;20051;-76
2022/03/07 07:25:39;;;;;;;27.67;13.37;;;;;;;0.62;56.57;99988.09;5115522;28;20328;-76
2022/03/07 07:28:08;;;;;;;28.58;12.48;;;;;;;0.57;56.67;99984.50;5116537;28;20134;-76
2022/03/07 07:30:37;;;;;;;25.90;12.57;;;;;;;0.45;56.55;99983.97;5116213;28;20046;-75
2022/03/07 07:33:08;;;;;;;27.37;12.17;;;;;;;0.47;56.43;99992.44;5116299;28;20036;-73
2022/03/07 07:35:37;;;;;;;28.20;11.07;;;;;;;0.50;56.50;99988.41;5107398;28;20432;-73
2022/03/07 07:38:07;;;;;;;29.30;11.37;;;;;;;0.41;56.76;99997.16;5095602;28;20046;-73
2022/03/07 07:40:36;;;;;;;24.63;10.77;;;;;;;0.42;56.88;99993.88;5115191;28;20089;-74
2022/03/07 07:43:05;;;;;;;25.85;10.43;;;;;;;0.48;56.68;99994.16;5116696;28;20048;-76
2022/03/07 07:45:35;;;;;;;23.40;10.40;;;;;;;0.46;56.76;99985.69;5116804;28;20077;-73
2022/03/07 07:48:05;;;;;;;23.80;10.25;;;;;;;0.57;56.85;99989.53;5116507;28;20043;-73
2022/03/07 07:50:35;;;;;;;32.15;14.30;;;;;;;0.65;56.59;99985.69;5116044;28;20085;-73
2022/03/07 07:53:04;;;;;;;28.67;13.20;;;;;;;0.60;56.25;99979.63;5114592;28;20390;-75
2022/03/07 07:55:33;;;;;;;22.88;11.18;;;;;;;0.67;56.22;99981.63;5097463;28;20074;-77
2022/03/07 07:58:02;;;;;;;37.90;20.37;;;;;;;0.71;56.21;99992.63;5105654;28;20036;-75
2022/03/07 08:00:31;;;;;;;27.55;11.65;;;;;;;0.72;56.10;99990.19;5111277;28;20481;-73
2022/03/07 08:03:00;;;;;;;26.07;13.97;;;;;;;0.68;56.16;99993.38;5115852;28;20032;-74
2022/03/07 08:05:29;;;;;;;26.88;12.25;;;;;;;0.77;56.08;99987.88;5114476;28;20055;-73
2022/03/07 08:08:00;;;;;;;31.93;15.93;;;;;;;0.71;56.42;99968.38;5116182;27;20078;-74
2022/03/07 08:10:29;;;;;;;36.25;18.08;;;;;;;0.89;56.28;99994.28;5100901;28;20036;-73
2022/03/07 08:12:59;;;;;;;30.48;14.20;;;;;;;0.96;56.15;99995.41;5095333;28;20040;-73
2022/03/07 08:15:29;;;;;;;27.20;11.45;;;;;;;1.01;56.33;99993.94;5096553;28;20054;-76
2022/03/07 08:17:58;;;;;;;35.58;14.88;;;;;;;1.00;55.95;99997.25;5099182;28;20040;-74
2022/03/07 08:20:28;;;;;;;27.87;13.17;;;;;;;1.06;55.48;99998.34;5115446;28;20047;-74
2022/03/07 08:23:00;;;;;;;23.67;11.23;;;;;;;0.99;56.00;100001.41;5115489;28;20063;-75
2022/03/07 08:25:29;;;;;;;25.90;12.98;;;;;;;1.04;55.49;100002.47;5115817;28;20469;-73
2022/03/07 08:27:58;;;;;;;25.80;14.13;;;;;;;1.06;55.40;100007.53;5115243;28;20047;-76
2022/03/07 08:30:28;;;;;;;28.30;11.17;;;;;;;1.08;55.28;100021.88;5114400;28;20047;-74
2022/03/07 08:32:57;;;;;;;24.23;10.68;;;;;;;1.13;54.91;100012.88;5114486;28;20108;-76
2022/03/07 08:35:26;;;;;;;28.95;13.23;;;;;;;1.13;54.45;100005.34;5115566;28;20054;-74
2022/03/07 08:37:55;;;;;;;35.55;13.85;;;;;;;1.16;54.91;100015.53;5114034;28;20079;-73
2022/03/07 08:40:26;;;;;;;27.25;12.88;;;;;;;0.91;55.00;99970.06;5113238;28;20493;-73
2022/03/07 08:42:56;;;;;;;23.73;10.63;;;;;;;1.12;54.69;99990.22;5103953;28;20213;-73
2022/03/07 08:45:26;;;;;;;27.10;11.52;;;;;;;1.29;54.88;100016.91;5106717;28;20047;-72
2022/03/07 08:48:15;;;;;;;27.75;12.43;;;;;;;1.34;54.30;100023.81;5112382;28;20080;-75
2022/03/07 08:50:48;;;;;;;25.35;13.10;;;;;;;1.46;53.94;100017.59;5113167;28;20039;-75
2022/03/07 08:53:17;;;;;;;27.27;12.90;;;;;;;1.48;53.35;100008.47;5114733;28;20043;-76
2022/03/07 08:55:48;;;;;;;26.85;12.30;;;;;;;1.64;52.92;100006.63;5114172;28;20043;-75
2022/03/07 08:58:37;;;;;;;25.38;11.88;;;;;;;1.75;51.69;100000.34;5114686;27;20050;-75
2022/03/07 09:01:06;;;;;;;26.52;10.48;;;;;;;1.65;51.75;99980.69;5113619;28;20062;-75
2022/03/07 09:03:35;;;;;;;21.75;10.90;;;;;;;1.90;51.44;99995.91;5114756;28;20074;-75
2022/03/07 09:06:05;;;;;;;25.35;10.85;;;;;;;2.01;50.73;100008.91;5114786;28;20043;-75
2022/03/07 09:08:33;;;;;;;21.67;11.13;;;;;;;2.09;49.45;99999.13;5114761;28;20051;-74
2022/03/07 09:14:47;;;;;;;32.60;9.80;;;;;;;2.39;48.12;99993.56;4384528;24;20050;-63
2022/03/07 09:17:16;;;;;;;18.42;9.07;;;;;;;2.29;47.70;99990.66;4835425;29;20034;-64
2022/03/07 09:19:45;;;;;;;19.97;9.13;;;;;;;2.42;47.59;99987.78;4824901;29;20050;-64
2022/03/07 09:22:14;;;;;;;20.75;8.85;;;;;;;2.46;46.87;99989.59;4825055;29;20050;-64
2022/03/07 09:24:43;;;;;;;19.77;9.57;;;;;;;2.40;46.28;99982.69;4824713;29;20042;-63
2022/03/07 09:27:11;;;;;;;20.70;7.03;;;;;;;2.57;45.01;99993.34;4825126;29;20492;-64
2022/03/07 09:29:40;;;;;;;19.53;9.73;;;;;;;2.77;44.49;99982.34;4825135;29;20776;-64
2022/03/07 09:32:11;;;;;;;21.43;8.80;;;;;;;3.09;43.46;99985.97;4824973;29;20133;-64
2022/03/07 09:34:40;;;;;;;19.95;8.52;;;;;;;3.31;42.82;99983.34;4825310;29;20141;-63
2022/03/07 09:37:10;;;;;;;18.13;9.55;;;;;;;3.47;42.23;99979.66;4824978;29;20078;-64
2022/03/07 09:39:40;;;;;;;18.23;7.90;;;;;;;3.57;41.55;99962.34;4825137;29;20074;-64
2022/03/07 09:42:09;;;;;;;18.05;7.68;;;;;;;4.33;41.27;99979.78;4819557;29;20060;-64
2022/03/07 09:44:38;;;;;;;16.42;6.80;;;;;;;4.33;40.26;99974.72;4808495;29;20042;-64
2022/03/07 09:47:07;;;;;;;18.90;8.40;;;;;;;4.27;39.46;99977.91;4824687;29;20060;-64
2022/03/07 09:49:38;;;;;;;17.27;7.95;;;;;;;4.36;39.31;99967.22;4824917;29;20094;-64
2022/03/07 09:52:07;;;;;;;15.35;7.88;;;;;;;4.05;38.51;99978.94;4824838;29;20390;-64
2022/03/07 09:54:37;;;;;;;13.13;5.95;;;;;;;4.19;37.87;99970.94;4825021;29;20046;-63
2022/03/07 09:57:06;;;;;;;18.70;7.75;;;;;;;4.25;37.44;99979.53;4818816;29;20058;-63
2022/03/07 09:59:35;;;;;;;16.48;7.43;;;;;;;4.27;36.79;99974.56;4806347;29;20043;-63
2022/03/07 10:02:07;;;;;;;15.15;7.95;;;;;;;4.78;36.86;99981.03;4822978;29;20050;-64
2022/03/07 10:04:43;;;;;;;15.77;8.15;;;;;;;5.08;36.96;99979.34;4828409;29;20497;-64
2022/03/07 10:07:13;;;;;;;16.20;7.70;;;;;;;5.26;36.24;99972.19;4828537;29;20072;-64
2022/03/07 10:09:43;;;;;;;15.93;7.57;;;;;;;5.29;35.73;99977.34;4834100;29;20068;-63
2022/03/07 10:12:12;;;;;;;16.17;8.05;;;;;;;5.67;36.21;99974.88;4844611;29;20046;-64
2022/03/07 10:14:45;;;;;;;16.38;8.23;;;;;;;5.64;35.86;99987.47;4823299;29;20143;-66
2022/03/07 10:17:19;;;;;;;15.70;8.15;;;;;;;6.17;35.89;99971.00;4844190;29;20182;-64
2022/03/07 10:19:50;;;;;;;15.48;7.75;;;;;;;5.67;35.46;99975.72;4829840;29;20050;-64
2022/03/07 10:22:22;;;;;;;14.38;7.85;;;;;;;5.23;35.29;99961.16;4814080;29;20047;-64
2022/03/07 10:25:03;;;;;;;21.42;8.73;;;;;;;5.05;36.30;99964.09;4827613;29;20186;-64
2022/03/07 10:27:34;;;;;;;16.20;8.48;;;;;;;4.80;37.49;99965.94;4827767;29;20059;-64
2022/03/07 10:30:04;;;;;;;15.05;7.40;;;;;;;4.27;36.65;99964.44;4828013;29;20107;-63
2022/03/07 10:32:33;;;;;;;20.67;8.85;;;;;;;4.26;38.15;99967.78;4821929;29;20484;-65
2022/03/07 10:35:03;;;;;;;22.80;9.50;;;;;;;4.55;38.13;99964.41;4827653;29;20131;-64
2022/03/07 10:37:35;;;;;;;15.45;8.40;;;;;;;5.32;37.30;99972.38;4827680;29;20058;-64
2022/03/07 10:40:08;;;;;;;16.65;9.32;;;;;;;4.99;37.72;99960.53;4825728;29;20355;-64
2022/03/07 10:42:45;;;;;;;14.43;8.15;;;;;;;4.48;38.09;99954.94;4823919;29;20045;-64
2022/03/07 10:45:15;;;;;;;17.77;7.68;;;;;;;4.46;37.75;99961.63;4827276;29;20050;-64
2022/03/07 10:47:44;;;;;;;15.25;8.10;;;;;;;3.93;38.90;99967.66;4826531;29;20038;-63
2022/03/07 10:50:15;;;;;;;17.30;9.10;;;;;;;4.33;37.93;99954.50;4824851;29;20046;-64
2022/03/07 10:52:43;;;;;;;18.40;7.70;;;;;;;4.85;37.40;99962.69;4826630;29;20401;-64
2022/03/07 10:55:14;;;;;;;14.47;7.00;;;;;;;4.72;38.07;99948.03;4827256;29;20491;-64
2022/03/07 10:57:44;;;;;;;15.80;7.32;;;;;;;4.65;38.78;99943.63;4825385;29;20050;-65
2022/03/07 11:00:16;;;;;;;14.25;7.43;;;;;;;5.52;37.87;99918.84;4826718;29;20439;-65
2022/03/07 11:02:47;;;;;;;15.57;9.07;;;;;;;6.10;36.34;99926.91;4824468;29;20493;-64
2022/03/07 11:05:18;;;;;;;13.90;6.70;;;;;;;5.93;35.86;99929.09;4827419;29;20050;-64
2022/03/07 11:07:49;;;;;;;14.60;7.18;;;;;;;6.09;35.82;99925.22;4827344;29;20061;-64
2022/03/07 11:10:19;;;;;;;14.40;6.70;;;;;;;5.78;36.24;99917.75;4824920;29;20042;-65
2022/03/07 11:12:48;;;;;;;13.15;6.28;;;;;;;5.65;36.62;99925.88;4809188;29;20053;-65
2022/03/07 11:15:18;;;;;;;13.67;7.83;;;;;;;5.07;37.11;99919.44;4808940;29;20133;-65
2022/03/07 11:17:48;;;;;;;19.05;8.18;;;;;;;4.59;39.04;99923.22;4809143;29;20120;-65
2022/03/07 11:20:19;;;;;;;15.43;8.23;;;;;;;4.76;39.74;99919.47;4809035;29;20051;-65
2022/03/07 11:22:48;;;;;;;21.88;7.57;;;;;;;6.11;39.14;99912.56;4826910;29;20050;-65
2022/03/07 11:25:17;;;;;;;13.43;7.47;;;;;;;6.37;37.78;99907.22;4827208;29;20073;-64
2022/03/07 11:27:46;;;;;;;13.65;7.43;;;;;;;5.83;38.40;99906.03;4826693;29;20042;-65
2022/03/07 11:30:18;;;;;;;14.20;7.43;;;;;;;5.64;38.70;99919.94;4827087;29;20094;-65
2022/03/07 11:32:50;;;;;;;15.30;7.53;;;;;;;5.41;38.53;99916.91;4826905;29;20488;-65
2022/03/07 11:35:23;;;;;;;14.75;7.80;;;;;;;5.05;39.53;99920.22;4826649;29;20054;-65
2022/03/07 11:37:52;;;;;;;16.00;8.10;;;;;;;4.69;39.70;99902.44;4826716;29;20050;-65
2022/03/07 11:40:23;;;;;;;14.13;6.50;;;;;;;5.19;39.85;99909.63;4826515;29;20087;-65
2022/03/07 11:42:52;;;;;;;14.80;7.15;;;;;;;5.03;40.53;99907.53;4825820;29;20060;-64
2022/03/07 11:45:23;;;;;;;17.33;7.60;;;;;;;4.58;40.55;99896.25;4826799;29;20050;-64
2022/03/07 11:47:52;;;;;;;14.57;7.75;;;;;;;4.30;40.71;99904.75;4826490;29;20508;-65